createdAt,value
2022-10-02T00:00:46.065Z,98492.34
2022-10-02T00:03:37.416Z,98493.19
2022-10-02T00:06:21.533Z,98496.03
2022-10-02T00:08:57.346Z,98509.19
2022-10-02T00:11:38.994Z,98508.22
2022-10-02T00:14:14.137Z,98513.84
2022-10-02T00:16:53.570Z,98511.91
2022-10-02T00:19:20.736Z,98524.63
2022-10-02T00:22:12.771Z,98521.63
2022-10-02T00:24:47.076Z,98534.84
2022-10-02T00:27:59.129Z,98531.38
2022-10-02T00:30:33.817Z,98527.94
2022-10-02T00:33:27.167Z,98531.69
2022-10-02T00:36:31.194Z,98532.72
2022-10-02T00:39:07.104Z,98545.19
2022-10-02T00:41:43.254Z,98548.16
2022-10-02T00:44:57.230Z,98549.97
2022-10-02T00:47:57.023Z,98545.69
2022-10-02T00:50:40.255Z,98550.81
2022-10-02T00:53:48.671Z,98563.19
2022-10-02T00:56:45.747Z,98557.31
2022-10-02T00:59:21.004Z,98558.16
2022-10-02T01:01:54.467Z,98554.59
2022-10-02T01:04:33.422Z,98552.41
2022-10-02T01:07:02.792Z,98562.00
2022-10-02T01:09:29.983Z,98558.47
2022-10-02T01:11:57.746Z,98563.75
2022-10-02T01:14:40.261Z,98571.78
2022-10-02T01:17:25.870Z,98571.25
2022-10-02T01:19:53.137Z,98576.38
2022-10-02T01:23:07.204Z,98579.91
2022-10-02T01:25:34.350Z,98588.69
2022-10-02T01:28:01.719Z,98588.53
2022-10-02T01:30:31.845Z,98584.16
2022-10-02T01:33:05.789Z,98595.94
2022-10-02T01:35:38.071Z,98592.41
2022-10-02T01:38:11.152Z,98600.63
2022-10-02T01:40:41.151Z,98604.19
2022-10-02T01:43:14.697Z,98598.19
2022-10-02T01:45:41.618Z,98607.94
2022-10-02T01:48:33.421Z,98608.09
2022-10-02T01:51:33.479Z,98610.81
2022-10-02T01:54:16.474Z,98609.91
2022-10-02T01:56:52.062Z,98611.66
2022-10-02T01:59:57.733Z,98620.63
2022-10-02T02:03:02.324Z,98629.56
2022-10-02T02:05:40.796Z,98633.16
2022-10-02T02:08:31.832Z,98634.38
2022-10-02T02:11:17.672Z,98632.69
2022-10-02T02:14:16.167Z,98634.31
2022-10-02T02:16:56.184Z,98640.56
2022-10-02T02:19:59.397Z,98635.72
2022-10-02T02:22:36.548Z,98657.50
2022-10-02T02:25:18.647Z,98643.50
2022-10-02T02:28:03.423Z,98651.66
2022-10-02T02:30:32.253Z,98657.00
2022-10-02T02:33:14.765Z,98655.31
2022-10-02T02:35:48.728Z,98657.25
2022-10-02T02:38:25.808Z,98659.72
2022-10-02T02:40:56.505Z,98660.53
2022-10-02T02:43:34.578Z,98671.13
2022-10-02T02:46:10.581Z,98671.25
2022-10-02T02:48:45.859Z,98676.63
2022-10-02T02:51:26.520Z,98674.97
2022-10-02T02:54:11.561Z,98675.28
2022-10-02T02:56:42.668Z,98682.44
2022-10-02T02:59:13.442Z,98672.78
2022-10-02T03:01:42.166Z,98679.31
2022-10-02T03:04:13.859Z,98682.59
2022-10-02T03:06:49.360Z,98681.81
2022-10-02T03:09:23.823Z,98687.09
2022-10-02T03:12:20.818Z,98680.81
2022-10-02T03:14:59.645Z,98684.28
2022-10-02T03:18:18.013Z,98681.09
2022-10-02T03:21:11.798Z,98694.09
2022-10-02T03:24:10.354Z,98692.47
2022-10-02T03:26:52.463Z,98698.66
2022-10-02T03:29:30.122Z,98703.81
2022-10-02T03:31:59.796Z,98705.81
2022-10-02T03:34:27.261Z,98694.63
2022-10-02T03:36:54.122Z,98695.31
2022-10-02T03:39:25.171Z,98692.47
2022-10-02T03:41:53.813Z,98691.44
2022-10-02T03:44:20.791Z,98688.72
2022-10-02T03:46:47.851Z,98681.66
2022-10-02T03:49:14.668Z,98681.72
2022-10-02T03:51:41.443Z,98682.59
2022-10-02T03:54:21.520Z,98680.94
2022-10-02T03:56:55.543Z,98680.72
2022-10-02T03:59:47.120Z,98682.53
2022-10-02T04:02:25.255Z,98687.88
2022-10-02T04:05:08.461Z,98689.81
2022-10-02T04:07:42.152Z,98696.25
2022-10-02T04:10:32.786Z,98700.91
2022-10-02T04:13:14.462Z,98697.81
2022-10-02T04:15:57.895Z,98699.75
2022-10-02T04:18:50.247Z,98696.38
2022-10-02T04:21:36.329Z,98697.75
2022-10-02T04:24:14.548Z,98704.75
2022-10-02T04:26:53.687Z,98699.41
2022-10-02T04:29:28.453Z,98694.91
2022-10-02T04:32:11.935Z,98699.34
2022-10-02T04:34:39.394Z,98692.25
2022-10-02T04:38:07.136Z,98694.06
2022-10-02T04:41:08.185Z,98700.25
2022-10-02T04:44:35.851Z,98696.53
2022-10-02T04:47:24.131Z,98701.88
2022-10-02T04:50:12.407Z,98694.75
2022-10-02T04:53:14.224Z,98704.31
2022-10-02T04:56:19.477Z,98710.38
2022-10-02T04:59:24.998Z,98713.75
2022-10-02T05:02:16.301Z,98709.31
2022-10-02T05:05:06.170Z,98699.59
2022-10-02T05:08:10.206Z,98702.31
2022-10-02T05:10:52.027Z,98703.25
2022-10-02T05:14:12.116Z,98699.53
2022-10-02T05:17:11.346Z,98701.25
2022-10-02T05:20:20.588Z,98698.59
2022-10-02T05:23:07.546Z,98700.22
2022-10-02T05:25:35.642Z,98701.16
2022-10-02T05:28:08.596Z,98707.13
2022-10-02T05:30:52.785Z,98701.91
2022-10-02T05:34:02.616Z,98715.97
2022-10-02T05:36:43.084Z,98712.16
2022-10-02T05:39:28.348Z,98719.19
2022-10-02T05:42:15.793Z,98721.69
2022-10-02T05:44:58.002Z,98724.97
2022-10-02T05:47:39.370Z,98722.31
2022-10-02T05:50:18.651Z,98725.66
2022-10-02T05:53:08.807Z,98725.72
2022-10-02T05:55:49.370Z,98725.66
2022-10-02T05:58:42.003Z,98721.22
2022-10-02T06:01:22.996Z,98721.22
2022-10-02T06:04:03.911Z,98717.50
2022-10-02T06:06:54.248Z,98720.00
2022-10-02T06:09:36.247Z,98720.66
2022-10-02T06:12:14.040Z,98725.81
2022-10-02T06:14:59.405Z,98722.03
2022-10-02T06:17:34.200Z,98721.72
2022-10-02T06:20:26.722Z,98709.22
2022-10-02T06:23:41.691Z,98715.59
2022-10-02T06:26:38.322Z,98736.31
2022-10-02T06:29:41.608Z,98731.63
2022-10-02T06:32:36.769Z,98737.47
2022-10-02T06:35:12.980Z,98741.66
2022-10-02T06:37:50.964Z,98744.03
2022-10-02T06:40:33.799Z,98742.00
2022-10-02T06:43:52.249Z,98738.25
2022-10-02T06:47:19.623Z,98731.63
2022-10-02T06:50:33.780Z,98731.22
2022-10-02T06:53:47.606Z,98734.44
2022-10-02T06:56:29.913Z,98737.53
2022-10-02T06:59:47.161Z,98731.03
2022-10-02T07:02:32.945Z,98737.78
2022-10-02T07:05:02.841Z,98734.84
2022-10-02T07:07:44.749Z,98729.63
2022-10-02T07:10:34.105Z,98736.94
2022-10-02T07:13:28.911Z,98734.72
2022-10-02T07:16:17.023Z,98727.41
2022-10-02T07:19:26.673Z,98724.34
2022-10-02T07:22:44.704Z,98730.94
2022-10-02T07:25:44.363Z,98719.91
2022-10-02T07:28:17.232Z,98720.41
2022-10-02T07:31:20.049Z,98712.19
2022-10-02T07:34:06.532Z,98723.31
2022-10-02T07:37:08.988Z,98718.78
2022-10-02T07:40:06.965Z,98719.66
2022-10-02T07:42:49.234Z,98712.22
2022-10-02T07:45:35.957Z,98718.13
2022-10-02T07:48:28.664Z,98712.97
2022-10-02T07:51:50.206Z,98718.19
2022-10-02T07:55:01.386Z,98706.03
2022-10-02T07:57:45.798Z,98711.84
2022-10-02T08:00:17.782Z,98717.44
2022-10-02T08:03:14.723Z,98710.38
2022-10-02T08:05:47.511Z,98712.13
2022-10-02T08:08:53.920Z,98710.94
2022-10-02T08:11:53.092Z,98710.78
2022-10-02T08:14:41.518Z,98706.91
2022-10-02T08:17:27.658Z,98708.63
2022-10-02T08:20:07.340Z,98710.91
2022-10-02T08:22:53.506Z,98708.09
2022-10-02T08:25:31.046Z,98699.22
2022-10-02T08:28:18.103Z,98703.56
2022-10-02T08:30:45.052Z,98701.31
2022-10-02T08:33:22.976Z,98694.97
2022-10-02T08:36:01.846Z,98693.75
2022-10-02T08:38:45.424Z,98690.72
2022-10-02T08:41:43.830Z,98690.50
2022-10-02T08:44:38.223Z,98691.31
2022-10-02T08:47:47.471Z,98697.75
2022-10-02T08:51:05.206Z,98689.41
2022-10-02T08:54:02.726Z,98691.50
2022-10-02T08:57:04.685Z,98685.25
2022-10-02T08:59:53.392Z,98681.81
2022-10-02T09:03:15.763Z,98688.44
2022-10-02T09:06:37.594Z,98691.56
2022-10-02T09:09:46.950Z,98692.03
2022-10-02T09:13:14.280Z,98691.66
2022-10-02T09:15:47.127Z,98695.94
2022-10-02T09:18:41.314Z,98688.72
2022-10-02T09:21:40.611Z,98692.91
2022-10-02T09:24:32.040Z,98685.00
2022-10-02T09:27:34.451Z,98683.00
2022-10-02T09:30:20.559Z,98677.59
2022-10-02T09:33:17.005Z,98670.50
2022-10-02T09:36:10.519Z,98668.38
2022-10-02T09:39:04.096Z,98672.81
2022-10-02T09:42:08.457Z,98669.22
2022-10-02T09:45:11.302Z,98674.34
2022-10-02T09:48:19.737Z,98666.19
2022-10-02T09:51:26.590Z,98662.47
2022-10-02T09:54:33.103Z,98645.03
2022-10-02T09:57:43.579Z,98646.19
2022-10-02T10:00:22.284Z,98646.56
2022-10-02T10:03:26.092Z,98641.44
2022-10-02T10:06:26.797Z,98638.78
2022-10-02T10:09:35.330Z,98633.06
2022-10-02T10:12:42.069Z,98633.81
2022-10-02T10:15:58.924Z,98638.91
2022-10-02T10:18:51.808Z,98636.38
2022-10-02T10:21:42.761Z,98636.19
2022-10-02T10:24:43.592Z,98638.72
2022-10-02T10:27:38.798Z,98630.09
2022-10-02T10:30:31.129Z,98623.81
2022-10-02T10:33:01.415Z,98636.28
2022-10-02T10:35:57.099Z,98639.38
2022-10-02T10:38:38.243Z,98647.38
2022-10-02T10:41:23.508Z,98653.84
2022-10-02T10:44:30.830Z,98647.06
2022-10-02T10:47:28.487Z,98647.25
2022-10-02T10:50:39.846Z,98651.75
2022-10-02T10:53:34.855Z,98639.47
2022-10-02T10:56:37.177Z,98633.41
2022-10-02T10:59:42.464Z,98630.09
2022-10-02T11:02:31.486Z,98631.16
2022-10-02T11:05:25.035Z,98621.59
2022-10-02T11:08:29.366Z,98615.28
2022-10-02T11:11:39.298Z,98610.84
2022-10-02T11:14:41.674Z,98602.31
2022-10-02T11:17:54.186Z,98611.81
2022-10-02T11:20:34.609Z,98602.03
2022-10-02T11:23:23.157Z,98600.31
2022-10-02T11:26:16.792Z,98599.25
2022-10-02T11:29:04.909Z,98592.00
2022-10-02T11:32:14.369Z,98585.53
2022-10-02T11:35:44.520Z,98580.22
2022-10-02T11:39:02.558Z,98574.03
2022-10-02T11:42:10.107Z,98574.38
2022-10-02T11:44:44.983Z,98580.63
2022-10-02T11:47:49.176Z,98577.03
2022-10-02T11:50:41.442Z,98566.56
2022-10-02T11:53:44.383Z,98573.28
2022-10-02T11:57:01.801Z,98558.28
2022-10-02T12:00:14.909Z,98567.31
2022-10-02T12:02:56.350Z,98549.41
2022-10-02T12:05:48.576Z,98552.72
2022-10-02T12:08:46.894Z,98551.44
2022-10-02T12:11:54.430Z,98556.78
2022-10-02T12:15:10.989Z,98547.59
2022-10-02T12:17:54.708Z,98541.66
2022-10-02T12:21:02.443Z,98536.97
2022-10-02T12:24:18.822Z,98538.25
2022-10-02T12:27:13.234Z,98530.56
2022-10-02T12:30:07.656Z,98526.84
2022-10-02T12:33:17.565Z,98538.66
2022-10-02T12:36:10.055Z,98529.69
2022-10-02T12:39:16.754Z,98534.72
2022-10-02T12:42:41.051Z,98531.34
2022-10-02T12:45:23.562Z,98530.50
2022-10-02T12:48:36.094Z,98522.25
2022-10-02T12:51:12.202Z,98522.91
2022-10-02T12:54:33.405Z,98519.84
2022-10-02T12:57:52.521Z,98516.94
2022-10-02T13:00:46.125Z,98516.50
2022-10-02T13:03:58.067Z,98513.63
2022-10-02T13:06:52.188Z,98506.88
2022-10-02T13:09:46.761Z,98504.94
2022-10-02T13:12:28.661Z,98506.66
2022-10-02T13:15:26.827Z,98495.78
2022-10-02T13:18:15.054Z,98502.06
2022-10-02T13:21:06.203Z,98496.00
2022-10-02T13:23:58.092Z,98491.00
2022-10-02T13:26:53.563Z,98480.97
2022-10-02T13:29:45.173Z,98487.06
2022-10-02T13:32:52.900Z,98490.06
2022-10-02T13:35:50.501Z,98495.59
2022-10-02T13:39:10.014Z,98504.94
2022-10-02T13:42:21.908Z,98499.63
2022-10-02T13:45:29.540Z,98505.41
2022-10-02T13:48:31.679Z,98500.00
2022-10-02T13:51:16.676Z,98507.75
2022-10-02T13:54:04.346Z,98505.97
2022-10-02T13:56:56.279Z,98532.72
2022-10-02T13:59:42.909Z,98551.34
2022-10-02T14:02:10.873Z,98560.16
2022-10-02T14:04:55.970Z,98561.25
2022-10-02T14:07:44.588Z,98562.34
2022-10-02T14:10:43.066Z,98558.09
2022-10-02T14:14:17.057Z,98550.75
2022-10-02T14:17:00.533Z,98557.50
2022-10-02T14:19:52.920Z,98556.72
2022-10-02T14:22:40.421Z,98561.09
2022-10-02T14:25:22.720Z,98564.50
2022-10-02T14:28:19.235Z,98562.72
2022-10-02T14:31:26.846Z,98568.03
2022-10-02T14:34:49.846Z,98564.91
2022-10-02T14:38:04.697Z,98563.66
2022-10-02T14:40:57.614Z,98562.34
2022-10-02T14:43:42.758Z,98551.88
2022-10-02T14:46:36.134Z,98552.44
2022-10-02T14:49:40.479Z,98548.53
2022-10-02T14:52:42.519Z,98549.00
2022-10-02T14:55:34.926Z,98556.56
2022-10-02T14:58:31.460Z,98551.59
2022-10-02T15:01:26.580Z,98543.34
2022-10-02T15:04:15.532Z,98552.72
2022-10-02T15:07:11.433Z,98546.34
2022-10-02T15:10:13.313Z,98546.06
2022-10-02T15:13:34.446Z,98546.72
2022-10-02T15:16:38.669Z,98549.03
2022-10-02T15:19:37.564Z,98548.09
2022-10-02T15:22:20.384Z,98553.22
2022-10-02T15:25:36.240Z,98556.56
2022-10-02T15:28:44.768Z,98556.47
2022-10-02T15:31:32.109Z,98561.78
2022-10-02T15:34:35.655Z,98568.59
2022-10-02T15:37:21.953Z,98555.09
2022-10-02T15:40:31.313Z,98550.50
2022-10-02T15:43:44.153Z,98547.66
2022-10-02T15:46:26.151Z,98552.13
2022-10-02T15:49:30.906Z,98559.38
2022-10-02T15:52:33.773Z,98552.22
2022-10-02T15:55:23.068Z,98545.97
2022-10-02T15:58:15.710Z,98545.75
2022-10-02T16:01:06.108Z,98536.06
2022-10-02T16:03:45.319Z,98530.66
2022-10-02T16:06:44.175Z,98542.25
2022-10-02T16:10:03.398Z,98544.06
2022-10-02T16:13:13.421Z,98543.50
2022-10-02T16:16:16.206Z,98546.16
2022-10-02T16:19:14.508Z,98547.00
2022-10-02T16:22:17.892Z,98558.59
2022-10-02T16:25:35.317Z,98564.22
2022-10-02T16:28:24.880Z,98561.56
2022-10-02T16:31:11.205Z,98568.03
2022-10-02T16:34:09.031Z,98563.09
2022-10-02T16:36:57.138Z,98565.13
2022-10-02T16:39:40.897Z,98568.16
2022-10-02T16:42:25.767Z,98569.84
2022-10-02T16:45:54.002Z,98573.59
2022-10-02T16:49:01.981Z,98578.91
2022-10-02T16:51:57.594Z,98572.09
2022-10-02T16:54:42.063Z,98580.81
2022-10-02T16:57:24.374Z,98581.00
2022-10-02T17:00:11.116Z,98583.84
2022-10-02T17:02:53.320Z,98591.81
2022-10-02T17:05:44.107Z,98590.34
2022-10-02T17:08:28.690Z,98577.25
2022-10-02T17:11:17.740Z,98587.97
2022-10-02T17:14:18.597Z,98589.88
2022-10-02T17:16:56.025Z,98596.97
2022-10-02T17:19:50.372Z,98596.63
2022-10-02T17:23:11.794Z,98596.81
2022-10-02T17:26:08.706Z,98606.69
2022-10-02T17:28:50.462Z,98609.72
2022-10-02T17:31:24.876Z,98613.72
2022-10-02T17:34:01.525Z,98620.91
2022-10-02T17:36:49.724Z,98629.84
2022-10-02T17:39:51.784Z,98617.69
2022-10-02T17:42:24.056Z,98620.56
2022-10-02T17:45:26.568Z,98621.88
2022-10-02T17:48:15.604Z,98626.53
2022-10-02T17:51:51.248Z,98629.28
2022-10-02T17:55:13.957Z,98634.09
2022-10-02T17:58:00.221Z,98641.97
2022-10-02T18:00:38.735Z,98649.19
2022-10-02T18:03:43.991Z,98652.03
2022-10-02T18:06:54.410Z,98660.16
2022-10-02T18:10:14.701Z,98660.25
2022-10-02T18:13:01.024Z,98665.69
2022-10-02T18:16:22.355Z,98659.50
2022-10-02T18:19:50.989Z,98669.28
2022-10-02T18:22:33.267Z,98672.94
2022-10-02T18:25:07.800Z,98674.84
2022-10-02T18:28:02.940Z,98671.44
2022-10-02T18:31:08.372Z,98687.44
2022-10-02T18:33:42.431Z,98691.03
2022-10-02T18:36:41.094Z,98692.19
2022-10-02T18:39:51.132Z,98691.25
2022-10-02T18:42:50.354Z,98700.97
2022-10-02T18:45:48.025Z,98702.84
2022-10-02T18:48:47.130Z,98704.75
2022-10-02T18:51:47.244Z,98701.34
2022-10-02T18:55:17.132Z,98699.53
2022-10-02T18:58:29.438Z,98703.19
2022-10-02T19:01:28.883Z,98704.06
2022-10-02T19:04:32.565Z,98698.94
2022-10-02T19:07:22.428Z,98708.63
2022-10-02T19:10:36.672Z,98719.13
2022-10-02T19:13:39.306Z,98716.59
2022-10-02T19:16:25.866Z,98717.50
2022-10-02T19:19:28.109Z,98718.28
2022-10-02T19:22:01.481Z,98726.06
2022-10-02T19:24:37.518Z,98721.69
2022-10-02T19:27:15.181Z,98732.13
2022-10-02T19:29:54.128Z,98732.13
2022-10-02T19:32:29.176Z,98736.50
2022-10-02T19:35:05.135Z,98741.31
2022-10-02T19:37:39.487Z,98742.41
2022-10-02T19:40:17.024Z,98743.47
2022-10-02T19:42:54.776Z,98734.75
2022-10-02T19:45:28.841Z,98743.63
2022-10-02T19:48:10.429Z,98749.69
2022-10-02T19:50:47.063Z,98752.44
2022-10-02T19:53:25.268Z,98760.22
2022-10-02T19:56:18.109Z,98757.75
2022-10-02T19:58:58.756Z,98767.84
2022-10-02T20:01:31.444Z,98768.97
2022-10-02T20:04:02.840Z,98771.47
2022-10-02T20:06:40.096Z,98774.13
2022-10-02T20:09:19.903Z,98771.28
2022-10-02T20:11:53.255Z,98776.41
2022-10-02T20:14:38.863Z,98784.34
2022-10-02T20:17:12.833Z,98789.50
2022-10-02T20:19:53.688Z,98801.84
2022-10-02T20:22:29.426Z,98806.09
2022-10-02T20:25:26.597Z,98798.13
2022-10-02T20:28:31.355Z,98804.41
2022-10-02T20:31:06.185Z,98811.50
2022-10-02T20:33:45.119Z,98808.94
2022-10-02T20:36:29.247Z,98809.13
2022-10-02T20:39:05.266Z,98816.41
2022-10-02T20:41:57.660Z,98821.03
2022-10-02T20:44:30.414Z,98822.03
2022-10-02T20:47:34.292Z,98822.19
2022-10-02T20:50:16.251Z,98831.13
2022-10-02T20:53:02.150Z,98826.81
2022-10-02T20:55:48.947Z,98827.66
2022-10-02T20:59:16.275Z,98822.56
2022-10-02T21:02:12.797Z,98827.94
2022-10-02T21:05:00.524Z,98836.84
2022-10-02T21:08:15.736Z,98829.03
2022-10-02T21:11:16.658Z,98846.16
2022-10-02T21:14:02.615Z,98844.34
2022-10-02T21:16:53.187Z,98845.38
2022-10-02T21:20:00.368Z,98851.78
2022-10-02T21:22:47.563Z,98860.00
2022-10-02T21:25:33.152Z,98861.84
2022-10-02T21:28:31.500Z,98862.75
2022-10-02T21:31:40.460Z,98865.31
2022-10-02T21:34:42.423Z,98858.19
2022-10-02T21:37:55.699Z,98859.28
2022-10-02T21:41:04.302Z,98867.31
2022-10-02T21:43:52.933Z,98859.56
2022-10-02T21:46:51.389Z,98857.00
2022-10-02T21:49:32.810Z,98865.88
2022-10-02T21:52:43.192Z,98862.38
2022-10-02T21:55:39.542Z,98864.16
2022-10-02T21:58:30.808Z,98864.16
2022-10-02T22:01:08.442Z,98863.28
2022-10-02T22:03:56.707Z,98875.63
2022-10-02T22:06:30.702Z,98873.97
2022-10-02T22:09:06.001Z,98871.31
2022-10-02T22:11:47.987Z,98876.72
2022-10-02T22:14:41.284Z,98881.31
2022-10-02T22:17:52.462Z,98895.69
2022-10-02T22:21:03.188Z,98889.78
2022-10-02T22:24:01.436Z,98895.00
2022-10-02T22:26:55.764Z,98895.16
2022-10-02T22:29:52.454Z,98900.28
2022-10-02T22:32:50.320Z,98894.84
2022-10-02T22:35:55.032Z,98897.47
2022-10-02T22:38:38.430Z,98899.25
2022-10-02T22:41:59.893Z,98903.56
2022-10-02T22:44:52.983Z,98905.31
2022-10-02T22:47:37.338Z,98907.13
2022-10-02T22:50:23.394Z,98916.03
2022-10-02T22:53:26.798Z,98915.16
2022-10-02T22:55:57.672Z,98910.00
2022-10-02T22:59:02.182Z,98916.19
2022-10-02T23:01:48.833Z,98914.47
2022-10-02T23:04:30.869Z,98913.78
2022-10-02T23:07:13.484Z,98917.34
2022-10-02T23:10:00.605Z,98914.06
2022-10-02T23:12:40.427Z,98913.31
2022-10-02T23:15:39.701Z,98910.03
2022-10-02T23:18:23.620Z,98910.25
2022-10-02T23:21:45.648Z,98912.56
2022-10-02T23:24:13.324Z,98925.06
2022-10-02T23:26:57.238Z,98918.25
2022-10-02T23:30:00.351Z,98916.41
2022-10-02T23:32:50.191Z,98921.66
2022-10-02T23:35:30.256Z,98926.78
2022-10-02T23:38:12.178Z,98925.81
2022-10-02T23:41:46.533Z,98935.50
2022-10-02T23:44:19.203Z,98930.28
2022-10-02T23:46:49.078Z,98928.44
2022-10-02T23:49:33.262Z,98926.78
2022-10-02T23:52:31.230Z,98925.06
2022-10-02T23:55:20.018Z,98929.44
2022-10-02T23:58:18.323Z,98927.63
